Time;durP1;ratioP1;P1;durP2;ratioP2;P2;SDS_P1;SDS_P2;PMS_P1;PMS_P2;Temp;Humidity;BMP_temperature;BMP_pressure;BME280_temperature;BME280_humidity;BME280_pressure;Samples;Min_cycle;Max_cycle;Signal;HPM_P1;HPM_P2
2023/03/05 00:00:38;;;;;;;14.18;10.52;;;;;;;;;;5054209;28;20155;-55
2023/03/05 00:03:04;;;;;;;13.55;9.68;;;;;;;;;;5054668;28;20071;-52
2023/03/05 00:05:31;;;;;;;17.52;11.88;;;;;;;;;;5054502;28;20035;-55
2023/03/05 00:07:57;;;;;;;18.35;12.50;;;;;;;;;;5053954;28;20028;-53
2023/03/05 00:10:23;;;;;;;15.82;10.98;;;;;;;;;;5053696;28;20025;-53
2023/03/05 00:12:48;;;;;;;13.70;10.95;;;;;;;;;;5052865;28;20045;-54
2023/03/05 00:15:14;;;;;;;17.00;11.38;;;;;;;;;;5053759;28;20100;-49
2023/03/05 00:17:40;;;;;;;16.08;12.13;;;;;;;;;;5054178;28;20095;-52
2023/03/05 00:20:07;;;;;;;25.38;11.88;;;;;;;;;;5053840;28;20031;-52
2023/03/05 00:22:34;;;;;;;21.80;12.85;;;;;;;;;;5054595;28;20040;-52
2023/03/05 00:25:00;;;;;;;18.67;12.05;;;;;;;;;;5053709;28;20057;-56
2023/03/05 00:27:26;;;;;;;20.47;12.20;;;;;;;;;;5053768;28;20068;-49
2023/03/05 00:29:51;;;;;;;17.70;11.75;;;;;;;;;;5053680;28;20134;-52
2023/03/05 00:32:17;;;;;;;16.83;10.75;;;;;;;;;;5053963;28;20104;-49
2023/03/05 00:34:43;;;;;;;17.30;11.30;;;;;;;;;;5053662;28;20032;-49
2023/03/05 00:37:09;;;;;;;17.33;10.77;;;;;;;;;;5053893;28;20086;-49
2023/03/05 00:39:35;;;;;;;14.13;11.57;;;;;;;;;;5053679;28;20029;-49
2023/03/05 00:42:01;;;;;;;19.20;11.65;;;;;;;;;;5053646;28;20347;-48
2023/03/05 00:44:27;;;;;;;15.85;9.90;;;;;;;;;;5053572;28;20017;-50
2023/03/05 00:46:53;;;;;;;16.92;10.48;;;;;;;;;;5054060;28;20037;-49
2023/03/05 00:49:19;;;;;;;16.05;11.20;;;;;;;;;;5053496;28;20116;-48
2023/03/05 00:51:45;;;;;;;15.03;10.43;;;;;;;;;;5053815;28;20083;-49
2023/03/05 00:54:11;;;;;;;18.35;10.70;;;;;;;;;;5053541;28;20025;-50
2023/03/05 00:56:37;;;;;;;20.77;11.68;;;;;;;;;;5053494;28;20029;-49
2023/03/05 00:59:03;;;;;;;16.55;11.93;;;;;;;;;;5053139;28;20044;-50
2023/03/05 01:01:29;;;;;;;13.90;10.68;;;;;;;;;;5054003;28;20074;-50
2023/03/05 01:03:56;;;;;;;16.40;10.10;;;;;;;;;;5053383;28;20086;-49
2023/03/05 01:06:22;;;;;;;19.40;11.87;;;;;;;;;;5053564;28;20086;-52
2023/03/05 01:08:48;;;;;;;17.37;10.53;;;;;;;;;;5053092;28;20052;-52
2023/03/05 01:11:14;;;;;;;13.10;10.32;;;;;;;;;;5054043;28;20029;-51
2023/03/05 01:13:40;;;;;;;24.77;13.82;;;;;;;;;;5053138;28;20397;-48
2023/03/05 01:16:07;;;;;;;17.52;12.82;;;;;;;;;;5053257;28;20422;-50
2023/03/05 01:18:33;;;;;;;19.80;13.77;;;;;;;;;;5053242;28;20063;-51
2023/03/05 01:20:59;;;;;;;22.60;13.50;;;;;;;;;;5053240;28;20115;-50
2023/03/05 01:23:25;;;;;;;26.03;16.30;;;;;;;;;;5055069;28;20061;-50
2023/03/05 01:25:58;;;;;;;25.80;14.55;;;;;;;;;;5057646;28;20112;-51
2023/03/05 01:28:24;;;;;;;17.92;11.90;;;;;;;;;;5057318;28;20021;-54
2023/03/05 01:30:50;;;;;;;21.63;11.35;;;;;;;;;;5055655;28;20029;-52
2023/03/05 01:33:16;;;;;;;17.30;12.15;;;;;;;;;;5057439;28;20025;-55
2023/03/05 01:35:45;;;;;;;13.17;10.17;;;;;;;;;;5056642;28;20116;-54
2023/03/05 01:38:11;;;;;;;14.43;10.30;;;;;;;;;;5056525;28;20482;-50
2023/03/05 01:40:37;;;;;;;23.15;12.45;;;;;;;;;;5056847;28;20057;-52
2023/03/05 01:43:12;;;;;;;16.57;10.70;;;;;;;;;;5056505;28;20029;-55
2023/03/05 01:45:38;;;;;;;22.52;11.93;;;;;;;;;;5057014;28;20563;-54
2023/03/05 01:48:04;;;;;;;21.70;11.43;;;;;;;;;;5056432;28;20107;-51
2023/03/05 01:50:30;;;;;;;14.30;11.00;;;;;;;;;;5056668;28;20024;-54
2023/03/05 01:53:02;;;;;;;20.58;11.07;;;;;;;;;;5056582;28;20030;-55
2023/03/05 01:55:29;;;;;;;18.15;13.23;;;;;;;;;;5056893;28;20036;-53
2023/03/05 01:58:21;;;;;;;17.60;11.15;;;;;;;;;;5056901;28;20075;-53
2023/03/05 02:00:47;;;;;;;12.20;9.93;;;;;;;;;;5055198;28;20033;-55
2023/03/05 02:03:14;;;;;;;15.68;11.90;;;;;;;;;;5056636;28;20059;-51
2023/03/05 02:05:43;;;;;;;19.17;10.77;;;;;;;;;;5056562;28;20037;-49
2023/03/05 02:08:10;;;;;;;18.30;11.85;;;;;;;;;;5056751;28;20116;-49
2023/03/05 02:10:38;;;;;;;33.75;13.30;;;;;;;;;;5056233;28;20025;-49
2023/03/05 02:13:12;;;;;;;30.63;14.27;;;;;;;;;;5056043;28;20045;-51
2023/03/05 02:15:38;;;;;;;17.88;11.98;;;;;;;;;;5056113;28;20174;-49
2023/03/05 02:18:04;;;;;;;20.37;13.20;;;;;;;;;;5056196;28;20067;-50
2023/03/05 02:20:41;;;;;;;17.73;10.88;;;;;;;;;;5056091;28;20036;-53
2023/03/05 02:23:07;;;;;;;25.05;10.80;;;;;;;;;;5056083;28;20021;-50
2023/03/05 02:25:33;;;;;;;16.08;11.43;;;;;;;;;;5056199;28;20021;-52
2023/03/05 02:28:02;;;;;;;21.93;11.37;;;;;;;;;;5055938;28;20048;-54
2023/03/05 02:30:30;;;;;;;23.45;11.75;;;;;;;;;;5056238;28;20100;-52
2023/03/05 02:32:56;;;;;;;17.40;11.07;;;;;;;;;;5055560;28;20383;-51
2023/03/05 02:35:22;;;;;;;17.73;10.87;;;;;;;;;;5055432;28;20025;-50
2023/03/05 02:37:48;;;;;;;20.92;12.77;;;;;;;;;;5055683;28;20025;-52
2023/03/05 02:40:15;;;;;;;15.90;11.87;;;;;;;;;;5055730;28;20099;-54
2023/03/05 02:42:41;;;;;;;16.10;10.93;;;;;;;;;;5055533;28;20037;-55
2023/03/05 02:45:08;;;;;;;13.65;9.27;;;;;;;;;;5056125;28;20078;-54
2023/03/05 02:47:34;;;;;;;18.80;13.37;;;;;;;;;;5055629;28;20033;-53
2023/03/05 02:50:00;;;;;;;23.30;12.07;;;;;;;;;;5055440;28;20074;-51
2023/03/05 02:52:27;;;;;;;19.77;11.88;;;;;;;;;;5055707;28;20104;-49
2023/03/05 02:54:53;;;;;;;17.55;10.77;;;;;;;;;;5055444;28;20086;-51
2023/03/05 02:57:19;;;;;;;18.15;11.73;;;;;;;;;;5055393;28;20029;-50
2023/03/05 02:59:45;;;;;;;15.30;10.10;;;;;;;;;;5055353;28;20025;-52
2023/03/05 03:02:11;;;;;;;25.50;14.90;;;;;;;;;;5055307;28;20135;-54
2023/03/05 03:04:37;;;;;;;17.08;11.85;;;;;;;;;;5055594;28;20158;-53
2023/03/05 03:07:03;;;;;;;13.60;11.02;;;;;;;;;;5055110;28;20033;-52
2023/03/05 03:09:29;;;;;;;20.55;12.38;;;;;;;;;;5055466;28;20120;-52
2023/03/05 03:11:55;;;;;;;19.48;10.85;;;;;;;;;;5055136;28;20056;-53
2023/03/05 03:14:21;;;;;;;12.88;10.13;;;;;;;;;;5054998;28;20087;-52
2023/03/05 03:16:47;;;;;;;16.60;10.82;;;;;;;;;;5055017;28;20068;-55
2023/03/05 03:19:14;;;;;;;14.35;10.77;;;;;;;;;;5055752;28;20025;-51
2023/03/05 03:21:40;;;;;;;21.93;11.87;;;;;;;;;;5055218;28;20036;-53
2023/03/05 03:24:06;;;;;;;18.55;10.70;;;;;;;;;;5054810;28;20017;-52
2023/03/05 03:26:32;;;;;;;12.97;10.20;;;;;;;;;;5054895;28;20033;-52
2023/03/05 03:28:58;;;;;;;14.07;9.40;;;;;;;;;;5054791;28;20086;-54
2023/03/05 03:31:24;;;;;;;17.35;9.93;;;;;;;;;;5054736;28;20432;-52
2023/03/05 03:33:50;;;;;;;15.63;10.13;;;;;;;;;;5055269;28;20052;-54
2023/03/05 03:36:16;;;;;;;15.60;10.63;;;;;;;;;;5055038;28;20170;-56
2023/03/05 03:38:42;;;;;;;12.57;9.93;;;;;;;;;;5054616;28;20021;-55
2023/03/05 03:41:08;;;;;;;16.10;11.13;;;;;;;;;;5054526;28;20036;-54
2023/03/05 03:43:35;;;;;;;15.20;9.33;;;;;;;;;;5055134;28;20443;-55
2023/03/05 03:46:06;;;;;;;14.27;9.63;;;;;;;;;;5054697;28;20041;-54
2023/03/05 03:48:33;;;;;;;13.55;9.02;;;;;;;;;;5053938;28;20063;-54
2023/03/05 03:50:59;;;;;;;11.73;7.83;;;;;;;;;;5054871;28;20074;-54
2023/03/05 03:53:25;;;;;;;15.15;10.98;;;;;;;;;;5054362;28;20443;-52
2023/03/05 03:55:50;;;;;;;15.60;9.98;;;;;;;;;;5054309;28;20393;-55
2023/03/05 03:58:16;;;;;;;12.27;7.65;;;;;;;;;;5054213;28;20082;-55
2023/03/05 04:00:42;;;;;;;18.40;9.23;;;;;;;;;;5054176;28;20025;-52
2023/03/05 04:03:08;;;;;;;11.95;8.75;;;;;;;;;;5054209;28;20029;-55
2023/03/05 04:05:34;;;;;;;12.27;7.70;;;;;;;;;;5054116;28;20116;-54
2023/03/05 04:08:00;;;;;;;14.10;8.77;;;;;;;;;;5054607;28;20107;-54
2023/03/05 04:10:26;;;;;;;12.70;8.57;;;;;;;;;;5054203;28;20116;-51
2023/03/05 04:12:52;;;;;;;14.90;9.27;;;;;;;;;;5054203;28;20048;-54
2023/03/05 04:15:19;;;;;;;13.38;8.52;;;;;;;;;;5053996;28;20025;-54
2023/03/05 04:17:45;;;;;;;19.77;9.73;;;;;;;;;;5053967;28;20119;-55
2023/03/05 04:20:11;;;;;;;16.45;9.50;;;;;;;;;;5054544;28;20458;-54
2023/03/05 04:22:37;;;;;;;18.50;9.25;;;;;;;;;;5053889;28;20043;-51
2023/03/05 04:25:05;;;;;;;14.35;9.23;;;;;;;;;;5053747;28;20463;-52
2023/03/05 04:27:32;;;;;;;12.40;7.30;;;;;;;;;;5053585;28;20044;-56
2023/03/05 04:29:58;;;;;;;11.63;8.50;;;;;;;;;;5054228;28;20025;-52
2023/03/05 04:32:28;;;;;;;15.10;10.13;;;;;;;;;;5053796;28;20043;-54
2023/03/05 04:34:54;;;;;;;14.18;9.68;;;;;;;;;;5054347;28;20112;-54
2023/03/05 04:37:20;;;;;;;14.40;9.15;;;;;;;;;;5053731;28;20033;-55
2023/03/05 04:39:46;;;;;;;12.90;7.75;;;;;;;;;;5053725;28;20027;-53
2023/03/05 04:42:12;;;;;;;14.38;10.40;;;;;;;;;;5054090;28;20078;-53
2023/03/05 04:44:38;;;;;;;12.50;8.67;;;;;;;;;;5053971;28;20468;-52
2023/03/05 04:47:04;;;;;;;14.27;9.03;;;;;;;;;;5053503;28;20044;-53
2023/03/05 04:49:30;;;;;;;11.13;8.43;;;;;;;;;;5053582;28;20108;-54
2023/03/05 04:51:56;;;;;;;13.63;9.90;;;;;;;;;;5054081;28;20043;-55
2023/03/05 04:54:23;;;;;;;16.98;8.73;;;;;;;;;;5054268;28;20021;-52
2023/03/05 04:56:49;;;;;;;14.43;9.70;;;;;;;;;;5054080;28;20189;-54
2023/03/05 04:59:15;;;;;;;15.30;10.07;;;;;;;;;;5055971;28;20394;-56
2023/03/05 05:01:42;;;;;;;16.00;8.38;;;;;;;;;;5057886;28;20036;-51
2023/03/05 05:04:08;;;;;;;16.45;8.43;;;;;;;;;;5058358;28;20029;-55
2023/03/05 05:06:34;;;;;;;14.30;8.20;;;;;;;;;;5057802;28;20107;-55
2023/03/05 05:09:00;;;;;;;15.80;8.85;;;;;;;;;;5057515;28;20440;-55
2023/03/05 05:11:26;;;;;;;15.80;7.60;;;;;;;;;;5057452;28;20025;-51
2023/03/05 05:13:52;;;;;;;12.73;8.23;;;;;;;;;;5057921;28;20045;-52
2023/03/05 05:16:18;;;;;;;13.93;8.20;;;;;;;;;;5057453;28;20078;-51
2023/03/05 05:18:44;;;;;;;14.52;8.48;;;;;;;;;;5057339;28;20079;-51
2023/03/05 05:21:11;;;;;;;11.15;7.68;;;;;;;;;;5057313;28;20040;-55
2023/03/05 05:23:36;;;;;;;13.70;8.83;;;;;;;;;;5057566;28;20387;-52
2023/03/05 05:26:03;;;;;;;15.60;9.27;;;;;;;;;;5057810;28;20029;-53
2023/03/05 05:28:29;;;;;;;13.07;6.65;;;;;;;;;;5057285;28;20489;-54
2023/03/05 05:30:55;;;;;;;16.13;7.80;;;;;;;;;;5057720;28;20025;-52
2023/03/05 05:33:22;;;;;;;10.90;7.00;;;;;;;;;;5057103;28;20035;-50
2023/03/05 05:35:48;;;;;;;14.40;7.03;;;;;;;;;;5057483;28;20029;-54
2023/03/05 05:38:14;;;;;;;11.83;9.47;;;;;;;;;;5057610;28;20059;-53
2023/03/05 05:40:40;;;;;;;10.63;8.00;;;;;;;;;;5057071;28;20025;-54
2023/03/05 05:43:06;;;;;;;10.80;7.18;;;;;;;;;;5057001;28;20044;-55
2023/03/05 05:45:32;;;;;;;9.65;7.45;;;;;;;;;;5057253;28;20059;-52
2023/03/05 05:47:58;;;;;;;9.63;7.10;;;;;;;;;;5056819;28;20017;-52
2023/03/05 05:50:25;;;;;;;16.03;7.83;;;;;;;;;;5056930;28;20414;-54
2023/03/05 05:52:51;;;;;;;12.53;8.60;;;;;;;;;;5056750;28;20104;-54
2023/03/05 05:55:18;;;;;;;12.30;8.00;;;;;;;;;;5057386;28;20064;-55
2023/03/05 05:57:44;;;;;;;16.57;9.80;;;;;;;;;;5057238;28;20366;-55
2023/03/05 06:00:11;;;;;;;13.65;9.15;;;;;;;;;;5056453;28;20096;-55
2023/03/05 06:02:38;;;;;;;10.43;7.88;;;;;;;;;;5056668;28;20039;-53
2023/03/05 06:05:04;;;;;;;14.30;8.87;;;;;;;;;;5057142;28;20021;-52
2023/03/05 06:07:30;;;;;;;13.40;7.37;;;;;;;;;;5056432;28;20076;-55
2023/03/05 06:09:56;;;;;;;16.60;9.40;;;;;;;;;;5056743;28;20473;-52
2023/03/05 06:12:22;;;;;;;12.97;7.57;;;;;;;;;;5056234;28;20025;-49
2023/03/05 06:14:48;;;;;;;13.13;9.23;;;;;;;;;;5056713;28;20025;-53
2023/03/05 06:17:14;;;;;;;12.00;7.67;;;;;;;;;;5057122;28;20035;-52
2023/03/05 06:19:40;;;;;;;17.33;9.03;;;;;;;;;;5056311;28;20099;-51
2023/03/05 06:22:06;;;;;;;15.45;9.82;;;;;;;;;;5056719;28;20025;-51
2023/03/05 06:24:32;;;;;;;12.52;9.52;;;;;;;;;;5056171;28;20104;-53
2023/03/05 06:26:58;;;;;;;14.52;7.47;;;;;;;;;;5056156;28;20451;-52
2023/03/05 06:29:24;;;;;;;10.53;9.33;;;;;;;;;;5056149;28;20021;-53
2023/03/05 06:31:50;;;;;;;15.13;9.77;;;;;;;;;;5056070;28;20025;-55
2023/03/05 06:34:16;;;;;;;15.48;9.68;;;;;;;;;;5056811;28;20052;-51
2023/03/05 06:36:43;;;;;;;11.37;9.73;;;;;;;;;;5055995;28;20044;-51
2023/03/05 06:39:09;;;;;;;16.35;10.63;;;;;;;;;;5055969;28;20074;-52
2023/03/05 06:41:35;;;;;;;12.77;9.90;;;;;;;;;;5055626;28;20425;-52
2023/03/05 06:44:01;;;;;;;19.52;11.23;;;;;;;;;;5056352;28;20028;-51
2023/03/05 06:46:29;;;;;;;11.10;9.85;;;;;;;;;;5056591;28;20090;-55
2023/03/05 06:48:56;;;;;;;11.98;9.80;;;;;;;;;;5055988;28;20386;-52
2023/03/05 06:51:26;;;;;;;11.75;9.82;;;;;;;;;;5056305;28;20033;-52
2023/03/05 06:53:53;;;;;;;15.90;9.73;;;;;;;;;;5056211;28;20028;-52
2023/03/05 06:56:19;;;;;;;12.60;8.70;;;;;;;;;;5054958;28;20371;-49
2023/03/05 06:58:46;;;;;;;16.95;10.05;;;;;;;;;;5055845;28;20101;-52
2023/03/05 07:01:13;;;;;;;15.95;8.07;;;;;;;;;;5055502;28;20025;-53
2023/03/05 07:03:39;;;;;;;21.00;13.13;;;;;;;;;;5056006;28;20348;-52
2023/03/05 07:06:06;;;;;;;17.17;9.60;;;;;;;;;;5055914;28;20376;-55
2023/03/05 07:08:32;;;;;;;12.98;9.27;;;;;;;;;;5055322;28;20096;-50
2023/03/05 07:10:58;;;;;;;15.35;10.27;;;;;;;;;;5055609;28;20055;-53
2023/03/05 07:13:24;;;;;;;15.25;9.15;;;;;;;;;;5055069;28;20428;-53
2023/03/05 07:15:50;;;;;;;12.88;9.40;;;;;;;;;;5055759;28;20116;-51
2023/03/05 07:18:16;;;;;;;15.63;9.87;;;;;;;;;;5055203;28;20169;-49
2023/03/05 07:20:42;;;;;;;15.68;9.88;;;;;;;;;;5055102;28;20029;-51
2023/03/05 07:23:08;;;;;;;14.77;11.45;;;;;;;;;;5055037;28;20383;-53
2023/03/05 07:25:38;;;;;;;16.75;8.63;;;;;;;;;;5055552;28;20032;-53
2023/03/05 07:28:05;;;;;;;13.25;7.93;;;;;;;;;;5054978;28;20078;-49
2023/03/05 07:30:31;;;;;;;10.35;8.75;;;;;;;;;;5055424;28;20029;-53
2023/03/05 07:32:57;;;;;;;12.80;8.57;;;;;;;;;;5054899;28;20060;-51
2023/03/05 07:35:23;;;;;;;14.23;8.50;;;;;;;;;;5055217;28;20068;-52
2023/03/05 07:37:49;;;;;;;16.63;8.75;;;;;;;;;;5054756;28;20159;-51
2023/03/05 07:40:15;;;;;;;16.58;9.00;;;;;;;;;;5054473;28;20032;-53
2023/03/05 07:42:41;;;;;;;19.90;10.13;;;;;;;;;;5054810;28;20472;-54
2023/03/05 07:45:08;;;;;;;19.65;10.63;;;;;;;;;;5055173;28;20102;-53
2023/03/05 07:47:34;;;;;;;14.27;9.43;;;;;;;;;;5054537;28;20120;-49
2023/03/05 07:50:00;;;;;;;17.23;8.70;;;;;;;;;;5054648;28;20029;-55
2023/03/05 07:52:26;;;;;;;14.40;9.68;;;;;;;;;;5055152;28;20035;-53
2023/03/05 07:54:52;;;;;;;17.80;11.23;;;;;;;;;;5055361;28;20021;-52
2023/03/05 07:57:18;;;;;;;20.35;9.00;;;;;;;;;;5054449;28;20375;-50
2023/03/05 07:59:44;;;;;;;14.68;9.38;;;;;;;;;;5054878;28;20385;-52
2023/03/05 08:02:11;;;;;;;10.77;8.15;;;;;;;;;;5054358;28;20021;-51
2023/03/05 08:04:37;;;;;;;16.00;8.35;;;;;;;;;;5054301;28;20029;-53
2023/03/05 08:07:03;;;;;;;11.48;8.43;;;;;;;;;;5053793;28;20037;-49
2023/03/05 08:09:29;;;;;;;13.90;8.45;;;;;;;;;;5054300;28;20348;-52
2023/03/05 08:11:55;;;;;;;12.20;7.00;;;;;;;;;;5054218;28;20025;-49
2023/03/05 08:14:22;;;;;;;11.93;8.88;;;;;;;;;;5054062;28;20048;-55
2023/03/05 08:16:51;;;;;;;16.40;9.65;;;;;;;;;;5054113;28;20053;-52
2023/03/05 08:19:17;;;;;;;8.40;7.35;;;;;;;;;;5054007;28;20142;-53
2023/03/05 08:21:42;;;;;;;14.75;7.13;;;;;;;;;;5053607;28;20125;-53
2023/03/05 08:24:10;;;;;;;21.88;8.25;;;;;;;;;;5053559;28;20021;-51
2023/03/05 08:26:37;;;;;;;14.15;8.90;;;;;;;;;;5054598;28;20040;-53
2023/03/05 08:29:03;;;;;;;15.07;9.00;;;;;;;;;;5053768;28;20348;-52
2023/03/05 08:31:29;;;;;;;21.30;9.38;;;;;;;;;;5053503;28;20498;-52
2023/03/05 08:33:56;;;;;;;11.27;6.80;;;;;;;;;;5052760;28;20017;-55
2023/03/05 08:36:22;;;;;;;10.80;7.43;;;;;;;;;;5054286;28;20064;-54
2023/03/05 08:38:49;;;;;;;14.27;7.70;;;;;;;;;;5053726;28;20028;-54
2023/03/05 08:41:15;;;;;;;10.82;7.03;;;;;;;;;;5053642;28;20063;-51
2023/03/05 08:43:41;;;;;;;9.15;6.35;;;;;;;;;;5053782;28;20060;-54
2023/03/05 08:46:07;;;;;;;18.27;7.95;;;;;;;;;;5053606;28;20122;-52
2023/03/05 08:48:33;;;;;;;12.85;8.00;;;;;;;;;;5053695;28;20025;-52
2023/03/05 08:51:06;;;;;;;16.25;9.43;;;;;;;;;;5053599;28;20056;-53
2023/03/05 08:53:32;;;;;;;12.65;7.68;;;;;;;;;;5053910;28;20033;-53
2023/03/05 08:55:58;;;;;;;14.40;9.73;;;;;;;;;;5053586;28;20120;-51
2023/03/05 08:58:24;;;;;;;11.20;6.82;;;;;;;;;;5053852;28;20021;-51
2023/03/05 09:00:51;;;;;;;7.93;6.38;;;;;;;;;;5053686;28;20031;-50
2023/03/05 09:03:17;;;;;;;10.63;7.82;;;;;;;;;;5053751;28;20367;-50
2023/03/05 09:05:43;;;;;;;13.10;8.18;;;;;;;;;;5053964;28;20355;-49
2023/03/05 09:08:09;;;;;;;13.30;8.40;;;;;;;;;;5053425;28;20036;-48
2023/03/05 09:10:35;;;;;;;13.23;8.02;;;;;;;;;;5053391;28;20074;-50
2023/03/05 09:13:03;;;;;;;11.10;5.93;;;;;;;;;;5053249;28;20135;-48
2023/03/05 09:15:29;;;;;;;13.25;8.35;;;;;;;;;;5053553;28;20514;-49
2023/03/05 09:17:55;;;;;;;10.40;6.80;;;;;;;;;;5053307;28;20032;-51
2023/03/05 09:20:21;;;;;;;12.50;8.65;;;;;;;;;;5053503;28;20103;-49
2023/03/05 09:22:47;;;;;;;13.68;8.07;;;;;;;;;;5053210;28;20426;-50
2023/03/05 09:25:13;;;;;;;10.00;8.15;;;;;;;;;;5053588;28;20079;-49
2023/03/05 09:27:39;;;;;;;11.32;8.07;;;;;;;;;;5053831;28;20072;-50
2023/03/05 09:30:06;;;;;;;10.02;7.63;;;;;;;;;;5053732;28;20044;-51
2023/03/05 09:32:32;;;;;;;12.02;8.80;;;;;;;;;;5053904;28;20367;-49
2023/03/05 09:34:58;;;;;;;13.98;9.48;;;;;;;;;;5053580;28;20029;-48
2023/03/05 09:37:24;;;;;;;16.00;7.30;;;;;;;;;;5053416;28;20029;-47
2023/03/05 09:39:50;;;;;;;14.07;7.82;;;;;;;;;;5052859;28;20033;-54
2023/03/05 09:42:22;;;;;;;12.52;8.55;;;;;;;;;;5053374;28;20028;-53
2023/03/05 09:44:58;;;;;;;11.25;7.68;;;;;;;;;;5055230;28;20032;-52
2023/03/05 09:47:47;;;;;;;11.45;7.32;;;;;;;;;;5056554;28;20124;-55
2023/03/05 09:50:19;;;;;;;13.73;8.18;;;;;;;;;;5053727;28;20041;-52
2023/03/05 09:52:46;;;;;;;13.10;9.20;;;;;;;;;;5056735;28;20032;-52
2023/03/05 09:55:17;;;;;;;13.23;8.80;;;;;;;;;;5056734;28;20036;-51
2023/03/05 09:57:48;;;;;;;13.45;8.05;;;;;;;;;;5056740;28;20059;-55
2023/03/05 10:00:25;;;;;;;13.30;8.48;;;;;;;;;;5056761;28;20025;-55
2023/03/05 10:02:54;;;;;;;13.63;9.23;;;;;;;;;;5056637;28;20021;-51
2023/03/05 10:05:24;;;;;;;14.25;7.97;;;;;;;;;;5056967;28;20029;-52
2023/03/05 10:07:54;;;;;;;13.07;7.97;;;;;;;;;;5056039;28;20471;-55
2023/03/05 10:10:24;;;;;;;21.63;10.10;;;;;;;;;;5056710;28;20029;-52
2023/03/05 10:12:56;;;;;;;12.45;8.63;;;;;;;;;;5056146;28;20439;-51
2023/03/05 10:15:28;;;;;;;11.73;8.52;;;;;;;;;;5056628;28;20032;-55
2023/03/05 10:17:54;;;;;;;15.27;10.23;;;;;;;;;;5056295;28;20078;-53
2023/03/05 10:20:32;;;;;;;10.38;6.38;;;;;;;;;;5056476;28;20025;-53
2023/03/05 10:23:07;;;;;;;14.13;8.00;;;;;;;;;;5056267;28;20027;-54
2023/03/05 10:25:55;;;;;;;13.93;7.72;;;;;;;;;;5055923;28;20029;-51
2023/03/05 10:28:24;;;;;;;9.93;7.82;;;;;;;;;;5056518;28;20072;-53
2023/03/05 10:30:56;;;;;;;15.23;8.70;;;;;;;;;;5056276;28;20055;-50
2023/03/05 10:33:38;;;;;;;12.35;8.35;;;;;;;;;;5055950;28;20039;-55
2023/03/05 10:36:07;;;;;;;15.25;9.13;;;;;;;;;;5055915;28;20033;-54
2023/03/05 10:38:33;;;;;;;14.73;9.70;;;;;;;;;;5055755;28;20033;-53
2023/03/05 10:41:07;;;;;;;13.98;10.52;;;;;;;;;;5055716;28;20036;-54
2023/03/05 10:43:36;;;;;;;14.65;9.07;;;;;;;;;;5055973;28;20027;-54
2023/03/05 10:46:02;;;;;;;12.45;9.13;;;;;;;;;;5056171;28;20033;-55
2023/03/05 10:48:36;;;;;;;17.33;8.98;;;;;;;;;;5056217;28;20463;-55
2023/03/05 10:51:13;;;;;;;14.07;10.13;;;;;;;;;;5055732;28;20406;-53
2023/03/05 10:53:50;;;;;;;14.55;9.93;;;;;;;;;;5056247;28;20049;-52
2023/03/05 10:56:19;;;;;;;15.48;8.95;;;;;;;;;;5054905;28;20048;-53
2023/03/05 10:58:45;;;;;;;13.20;9.70;;;;;;;;;;5055806;28;20104;-53
2023/03/05 11:01:11;;;;;;;13.48;9.38;;;;;;;;;;5055671;28;20064;-53
2023/03/05 11:03:47;;;;;;;14.27;9.43;;;;;;;;;;5055227;28;20025;-54
2023/03/05 11:06:13;;;;;;;11.98;8.55;;;;;;;;;;5055509;28;20111;-52
2023/03/05 11:08:40;;;;;;;12.32;7.45;;;;;;;;;;5055596;28;20366;-53
2023/03/05 11:11:05;;;;;;;10.30;7.88;;;;;;;;;;5055617;28;20063;-53
2023/03/05 11:13:32;;;;;;;14.15;8.90;;;;;;;;;;5054859;28;20068;-52
2023/03/05 11:16:03;;;;;;;15.00;9.40;;;;;;;;;;5055230;28;20144;-50
2023/03/05 11:18:35;;;;;;;10.70;9.02;;;;;;;;;;5055403;28;20035;-50
2023/03/05 11:21:08;;;;;;;14.43;8.68;;;;;;;;;;5055061;28;20032;-54
2023/03/05 11:23:34;;;;;;;10.85;7.95;;;;;;;;;;5054939;28;20025;-53
2023/03/05 11:26:01;;;;;;;12.95;7.90;;;;;;;;;;5054672;28;20031;-50
2023/03/05 11:28:29;;;;;;;14.40;9.20;;;;;;;;;;5055504;28;20503;-50
2023/03/05 11:30:57;;;;;;;14.85;9.00;;;;;;;;;;5054838;28;20017;-49
2023/03/05 11:33:23;;;;;;;14.38;9.32;;;;;;;;;;5055376;28;20372;-51
2023/03/05 11:35:50;;;;;;;15.35;8.98;;;;;;;;;;5055466;28;20025;-50
2023/03/05 11:38:15;;;;;;;10.20;8.18;;;;;;;;;;5054674;28;20017;-53
2023/03/05 11:40:42;;;;;;;14.13;8.75;;;;;;;;;;5054672;28;20025;-55
2023/03/05 11:43:14;;;;;;;13.13;9.18;;;;;;;;;;5054633;28;20024;-49
2023/03/05 11:45:40;;;;;;;18.00;10.32;;;;;;;;;;5054641;28;20043;-52
2023/03/05 11:48:16;;;;;;;17.67;8.10;;;;;;;;;;5055141;28;20363;-48
2023/03/05 11:50:43;;;;;;;22.85;10.07;;;;;;;;;;5054546;28;20131;-52
2023/03/05 11:53:21;;;;;;;14.52;8.45;;;;;;;;;;5054553;28;20028;-55
2023/03/05 11:56:13;;;;;;;16.52;9.13;;;;;;;;;;5054818;28;20366;-52
2023/03/05 11:58:55;;;;;;;12.68;9.18;;;;;;;;;;5053578;28;20463;-53
2023/03/05 12:01:23;;;;;;;13.35;8.73;;;;;;;;;;5054384;28;20352;-54
2023/03/05 12:03:50;;;;;;;15.65;9.63;;;;;;;;;;5054319;28;20481;-53
2023/03/05 12:06:39;;;;;;;13.63;8.65;;;;;;;;;;5054579;28;20041;-53
2023/03/05 12:09:25;;;;;;;18.98;7.63;;;;;;;;;;5054814;28;20029;-49
2023/03/05 12:11:53;;;;;;;15.82;10.05;;;;;;;;;;5054231;28;20025;-53
2023/03/05 12:14:24;;;;;;;12.45;8.05;;;;;;;;;;5054990;28;20162;-53
2023/03/05 12:16:50;;;;;;;;;;;;;;;;;;5055408;28;20060;-53
2023/03/05 12:19:22;;;;;;;13.30;9.60;;;;;;;;;;5054109;28;20362;-55
2023/03/05 12:21:50;;;;;;;17.25;9.43;;;;;;;;;;5053693;28;20036;-51
2023/03/05 12:24:25;;;;;;;10.80;8.45;;;;;;;;;;5052645;28;20124;-52
2023/03/05 12:26:57;;;;;;;12.63;8.55;;;;;;;;;;5053834;28;20035;-51
2023/03/05 12:29:26;;;;;;;13.45;9.07;;;;;;;;;;5053893;28;20467;-54
2023/03/05 12:31:52;;;;;;;12.38;9.13;;;;;;;;;;5053907;28;20135;-54
2023/03/05 12:34:36;;;;;;;16.75;10.93;;;;;;;;;;5053840;28;20028;-54
2023/03/05 12:37:02;;;;;;;14.25;7.03;;;;;;;;;;5053822;28;20068;-54
2023/03/05 12:39:43;;;;;;;16.35;9.32;;;;;;;;;;5054091;28;20024;-53
2023/03/05 12:42:28;;;;;;;13.45;7.93;;;;;;;;;;5053789;28;20028;-53
2023/03/05 12:45:10;;;;;;;13.98;9.57;;;;;;;;;;5054040;28;20463;-54
2023/03/05 12:47:37;;;;;;;13.57;8.65;;;;;;;;;;5053620;28;20044;-52
2023/03/05 12:50:03;;;;;;;13.95;8.82;;;;;;;;;;5053658;28;20025;-53
2023/03/05 12:52:30;;;;;;;16.73;9.48;;;;;;;;;;5053530;28;20459;-51
2023/03/05 12:55:02;;;;;;;19.75;10.40;;;;;;;;;;5054113;28;20083;-51
2023/03/05 12:57:30;;;;;;;17.27;9.38;;;;;;;;;;5054124;28;20407;-54
2023/03/05 12:59:59;;;;;;;9.20;6.90;;;;;;;;;;5053557;28;20029;-55
2023/03/05 13:02:25;;;;;;;12.00;7.82;;;;;;;;;;5054074;28;20463;-53
2023/03/05 13:04:52;;;;;;;20.02;8.60;;;;;;;;;;5053772;28;20087;-52
2023/03/05 13:07:18;;;;;;;11.73;7.47;;;;;;;;;;5053445;28;20125;-52
2023/03/05 13:09:52;;;;;;;11.30;8.25;;;;;;;;;;5053425;28;20107;-52
2023/03/05 13:12:18;;;;;;;15.90;9.30;;;;;;;;;;5053513;28;20443;-49
2023/03/05 13:14:45;;;;;;;10.98;7.25;;;;;;;;;;5053433;28;20036;-52
2023/03/05 13:17:27;;;;;;;18.00;8.80;;;;;;;;;;5053219;28;20052;-54
2023/03/05 13:19:53;;;;;;;11.68;8.23;;;;;;;;;;5054984;28;20529;-51
2023/03/05 13:22:19;;;;;;;9.88;7.70;;;;;;;;;;5057591;28;20036;-51
2023/03/05 13:24:46;;;;;;;14.80;7.70;;;;;;;;;;5057507;28;20359;-55
2023/03/05 13:27:27;;;;;;;17.95;9.73;;;;;;;;;;5057974;28;20140;-51
2023/03/05 13:29:53;;;;;;;11.50;8.18;;;;;;;;;;5057407;28;20035;-55
2023/03/05 13:32:24;;;;;;;13.73;8.25;;;;;;;;;;5057104;28;20431;-52
2023/03/05 13:34:50;;;;;;;;;;;;;;;;;;5057949;28;20028;-53
2023/03/05 13:37:20;;;;;;;13.35;6.97;;;;;;;;;;5057037;28;19904;-52
2023/03/05 13:39:51;;;;;;;12.93;7.32;;;;;;;;;;5056981;28;20419;-54
2023/03/05 13:42:17;;;;;;;;;;;;;;;;;;5057459;28;20371;-52
2023/03/05 13:44:43;;;;;;;13.68;7.57;;;;;;;;;;5057273;28;19905;-54
2023/03/05 13:47:17;;;;;;;12.20;7.05;;;;;;;;;;5057179;28;20367;-53
2023/03/05 13:49:43;;;;;;;15.82;9.02;;;;;;;;;;5056743;28;20028;-53
2023/03/05 13:52:10;;;;;;;17.55;8.07;;;;;;;;;;5056672;28;20021;-52
2023/03/05 13:54:36;;;;;;;12.30;8.30;;;;;;;;;;5056400;28;20553;-51
2023/03/05 13:57:04;;;;;;;9.77;7.50;;;;;;;;;;5056421;28;20057;-51
2023/03/05 13:59:34;;;;;;;22.40;8.13;;;;;;;;;;5056637;28;20021;-53
2023/03/05 14:02:03;;;;;;;13.40;8.27;;;;;;;;;;5056598;28;20051;-54
2023/03/05 14:04:30;;;;;;;15.88;7.55;;;;;;;;;;5056219;28;20483;-55
2023/03/05 14:07:04;;;;;;;12.20;7.88;;;;;;;;;;5056812;28;20029;-54
2023/03/05 14:09:39;;;;;;;11.98;7.15;;;;;;;;;;5056477;28;20021;-54
2023/03/05 14:12:31;;;;;;;10.85;7.47;;;;;;;;;;5056334;28;20378;-51
2023/03/05 14:14:58;;;;;;;13.73;6.90;;;;;;;;;;5056007;28;20045;-52
2023/03/05 14:17:27;;;;;;;11.27;7.22;;;;;;;;;;5056245;28;20032;-49
2023/03/05 14:20:06;;;;;;;8.65;6.72;;;;;;;;;;5056341;28;20142;-52
2023/03/05 14:22:34;;;;;;;14.65;8.00;;;;;;;;;;5056084;28;20025;-52
2023/03/05 14:25:00;;;;;;;8.25;7.25;;;;;;;;;;5055998;28;20056;-53
2023/03/05 14:27:26;;;;;;;14.75;8.95;;;;;;;;;;5056138;28;20514;-50
2023/03/05 14:29:52;;;;;;;12.52;6.38;;;;;;;;;;5055766;28;20021;-55
2023/03/05 14:32:20;;;;;;;12.88;7.30;;;;;;;;;;5055027;28;20035;-51